createdAt,value
2018-11-10T00:01:01.543Z,93.60
2018-11-10T00:03:32.911Z,93.80
2018-11-10T00:06:00.871Z,93.60
2018-11-10T00:08:28.924Z,93.20
2018-11-10T00:10:56.793Z,93.00
2018-11-10T00:13:24.830Z,93.20
2018-11-10T00:15:52.777Z,93.40
2018-11-10T00:18:20.744Z,93.50
2018-11-10T00:20:48.956Z,93.60
2018-11-10T00:23:16.908Z,93.60
2018-11-10T00:25:44.911Z,93.60
2018-11-10T00:28:12.884Z,93.30
2018-11-10T00:30:40.851Z,93.60
2018-11-10T00:33:08.848Z,93.70
2018-11-10T00:35:36.792Z,93.40
2018-11-10T00:38:05.205Z,93.60
2018-11-10T00:40:33.150Z,93.80
2018-11-10T00:43:01.126Z,93.60
2018-11-10T00:45:29.112Z,93.40
2018-11-10T00:47:57.384Z,93.40
2018-11-10T00:50:25.355Z,93.60
2018-11-10T00:52:53.379Z,93.40
2018-11-10T00:55:21.365Z,93.20
2018-11-10T00:57:49.347Z,93.00
2018-11-10T01:00:17.316Z,93.00
2018-11-10T01:02:45.287Z,93.50
2018-11-10T01:05:13.253Z,93.50
2018-11-10T01:07:41.583Z,93.40
2018-11-10T01:10:10.836Z,93.20
2018-11-10T01:12:38.871Z,93.40
2018-11-10T01:15:08.324Z,93.80
2018-11-10T01:17:36.601Z,93.60
2018-11-10T01:20:04.772Z,93.60
2018-11-10T01:22:32.737Z,93.50
2018-11-10T01:25:00.710Z,93.90
2018-11-10T01:27:28.663Z,94.00
2018-11-10T01:29:56.631Z,93.90
2018-11-10T01:32:24.623Z,93.70
2018-11-10T01:34:52.560Z,93.40
2018-11-10T01:37:20.522Z,93.10
2018-11-10T01:39:48.467Z,93.50
2018-11-10T01:42:16.443Z,93.60
2018-11-10T01:44:44.541Z,93.30
2018-11-10T01:47:12.491Z,93.30
2018-11-10T01:49:40.460Z,93.20
2018-11-10T01:52:08.430Z,93.80
2018-11-10T01:54:36.435Z,94.20
2018-11-10T01:57:04.512Z,94.30
2018-11-10T01:59:32.520Z,94.40
2018-11-10T02:02:00.472Z,94.30
2018-11-10T02:04:31.724Z,94.10
2018-11-10T02:06:59.691Z,93.60
2018-11-10T02:09:27.642Z,93.30
2018-11-10T02:11:55.643Z,93.10
2018-11-10T02:14:23.598Z,92.90
2018-11-10T02:16:51.583Z,93.50
2018-11-10T02:19:19.581Z,93.80
2018-11-10T02:21:47.542Z,93.40
2018-11-10T02:24:15.487Z,93.40
2018-11-10T02:26:43.454Z,93.40
2018-11-10T02:29:11.454Z,93.80
2018-11-10T02:31:39.696Z,93.50
2018-11-10T02:34:07.650Z,93.90
2018-11-10T02:36:35.612Z,93.80
2018-11-10T02:39:04.663Z,93.90
2018-11-10T02:41:32.606Z,93.70
2018-11-10T02:44:00.555Z,93.60
2018-11-10T02:46:28.782Z,93.80
2018-11-10T02:48:56.819Z,94.30
2018-11-10T02:51:24.803Z,94.30
2018-11-10T02:53:52.809Z,94.20
2018-11-10T02:56:20.820Z,94.20
2018-11-10T02:58:48.755Z,94.00
2018-11-10T03:01:16.770Z,93.80
2018-11-10T03:03:44.762Z,93.80
2018-11-10T03:06:12.925Z,94.20
2018-11-10T03:08:40.885Z,94.10
2018-11-10T03:11:08.859Z,93.90
2018-11-10T03:13:36.833Z,94.00
2018-11-10T03:16:05.015Z,93.70
2018-11-10T03:18:32.987Z,93.40
2018-11-10T03:21:04.039Z,93.70
2018-11-10T03:23:31.995Z,94.20
2018-11-10T03:25:59.987Z,94.10
2018-11-10T03:28:28.315Z,94.10
2018-11-10T03:30:56.334Z,94.30
2018-11-10T03:33:24.279Z,94.20
2018-11-10T03:35:52.230Z,93.80
2018-11-10T03:38:20.198Z,93.30
2018-11-10T03:40:48.143Z,93.70
2018-11-10T03:43:16.110Z,93.50
2018-11-10T03:45:44.078Z,93.00
2018-11-10T03:48:12.006Z,93.20
2018-11-10T03:50:39.983Z,93.70
2018-11-10T03:53:08.190Z,94.00
2018-11-10T03:55:36.276Z,93.60
2018-11-10T03:58:04.304Z,93.50
2018-11-10T04:00:32.268Z,93.50
2018-11-10T04:03:00.213Z,93.40
2018-11-10T04:05:28.196Z,93.40
2018-11-10T04:10:29.449Z,93.40
2018-11-10T04:12:57.643Z,93.90
2018-11-10T04:15:25.597Z,93.70
2018-11-10T04:17:53.636Z,94.10
2018-11-10T04:20:21.597Z,94.00
2018-11-10T04:22:49.590Z,93.50
2018-11-10T04:25:17.628Z,93.50
2018-11-10T04:27:45.574Z,93.40
2018-11-10T04:30:13.504Z,93.20
2018-11-10T04:32:41.521Z,93.50
2018-11-10T04:35:09.487Z,93.30
2018-11-10T04:37:37.697Z,93.80
2018-11-10T04:40:06.495Z,93.80
2018-11-10T04:42:34.453Z,93.90
2018-11-10T04:45:02.393Z,93.70
2018-11-10T04:47:30.616Z,93.70
2018-11-10T04:49:58.664Z,93.60
2018-11-10T04:52:29.881Z,93.30
2018-11-10T04:54:57.879Z,93.20
2018-11-10T04:57:25.924Z,93.20
2018-11-10T04:59:53.856Z,93.40
2018-11-10T05:02:21.808Z,93.10
2018-11-10T05:04:49.762Z,92.90
2018-11-10T05:07:17.728Z,93.10
2018-11-10T05:09:45.721Z,93.40
2018-11-10T05:12:13.732Z,93.70
2018-11-10T05:14:41.678Z,94.00
2018-11-10T05:17:09.666Z,94.30
2018-11-10T05:19:37.632Z,94.20
2018-11-10T05:22:05.607Z,94.00
2018-11-10T05:24:33.537Z,93.90
2018-11-10T05:27:01.512Z,93.90
2018-11-10T05:29:29.483Z,94.20
2018-11-10T05:31:57.488Z,94.00
2018-11-10T05:34:25.447Z,93.70
2018-11-10T05:36:53.386Z,93.20
2018-11-10T05:39:21.739Z,93.70
2018-11-10T05:41:49.705Z,93.80
2018-11-10T05:44:24.346Z,93.70
2018-11-10T05:46:52.323Z,93.60
2018-11-10T05:49:20.285Z,93.80
2018-11-10T05:51:48.265Z,94.00
2018-11-10T05:54:16.215Z,93.90
2018-11-10T05:56:44.203Z,93.90
2018-11-10T05:59:12.132Z,93.80
2018-11-10T06:01:40.078Z,94.00
2018-11-10T06:04:08.042Z,94.00
2018-11-10T06:06:35.985Z,94.60
2018-11-10T06:09:09.752Z,94.40
2018-11-10T06:11:37.912Z,94.30
2018-11-10T06:14:06.524Z,94.30
2018-11-10T06:16:34.547Z,93.90
2018-11-10T06:19:02.521Z,93.80
2018-11-10T06:21:30.503Z,94.00
2018-11-10T06:23:58.464Z,93.90
2018-11-10T06:26:27.121Z,93.80
2018-11-10T06:28:55.105Z,93.80
2018-11-10T06:31:23.051Z,93.50
2018-11-10T06:33:51.258Z,93.20
2018-11-10T06:36:19.228Z,93.00
2018-11-10T06:38:47.223Z,93.20
2018-11-10T06:41:15.493Z,93.40
2018-11-10T06:43:43.541Z,93.50
2018-11-10T06:46:11.483Z,93.80
2018-11-10T06:48:39.671Z,93.90
2018-11-10T06:51:07.813Z,94.00
2018-11-10T06:53:35.759Z,93.70
2018-11-10T06:56:03.716Z,93.90
2018-11-10T06:58:31.724Z,93.80
2018-11-10T07:00:59.702Z,93.60
2018-11-10T07:03:27.830Z,93.60
2018-11-10T07:05:55.726Z,93.40
2018-11-10T07:08:23.780Z,93.20
2018-11-10T07:10:51.764Z,93.40
2018-11-10T07:13:19.883Z,93.30
2018-11-10T07:15:47.829Z,93.20
2018-11-10T07:18:15.887Z,93.50
2018-11-10T07:20:43.811Z,93.60
2018-11-10T07:23:11.792Z,93.70
2018-11-10T07:25:39.825Z,93.70
2018-11-10T07:28:07.795Z,93.80
2018-11-10T07:30:35.785Z,93.60
2018-11-10T07:33:04.158Z,93.50
2018-11-10T07:35:32.139Z,93.80
2018-11-10T07:38:00.100Z,93.50
2018-11-10T07:40:29.741Z,93.40
2018-11-10T07:42:58.601Z,93.10
2018-11-10T07:45:26.519Z,92.90
2018-11-10T07:47:54.538Z,93.10
2018-11-10T07:50:22.526Z,93.10
2018-11-10T07:52:50.500Z,93.00
2018-11-10T07:55:21.879Z,92.90
2018-11-10T07:57:49.882Z,92.70
2018-11-10T08:00:18.468Z,92.90
2018-11-10T08:02:46.436Z,93.10
2018-11-10T08:05:15.132Z,93.20
2018-11-10T08:07:43.764Z,93.20
2018-11-10T08:10:12.554Z,93.30
2018-11-10T08:12:40.855Z,93.00
2018-11-10T08:15:12.175Z,93.20
2018-11-10T08:17:40.419Z,93.20
2018-11-10T08:20:09.088Z,93.20
2018-11-10T08:22:37.068Z,93.10
2018-11-10T08:25:06.615Z,93.00
2018-11-10T08:27:34.541Z,93.20
2018-11-10T08:30:02.552Z,93.10
2018-11-10T08:32:30.594Z,93.00
2018-11-10T08:34:58.559Z,93.10
2018-11-10T08:37:26.538Z,93.00
2018-11-10T08:39:54.556Z,93.20
2018-11-10T08:42:22.645Z,93.40
2018-11-10T08:44:50.664Z,93.60
2018-11-10T08:47:18.643Z,93.60
2018-11-10T08:49:46.635Z,92.80
2018-11-10T08:52:14.755Z,92.90
2018-11-10T08:54:42.815Z,92.90
2018-11-10T08:57:10.810Z,92.80
2018-11-10T08:59:38.800Z,92.90
2018-11-10T09:02:06.901Z,92.90
2018-11-10T09:04:35.212Z,92.90
2018-11-10T09:07:03.256Z,92.70
2018-11-10T09:09:31.222Z,92.50
2018-11-10T09:11:59.243Z,92.60
2018-11-10T09:14:27.216Z,92.50
2018-11-10T09:16:55.207Z,92.50
2018-11-10T09:19:23.178Z,92.80
2018-11-10T09:21:51.598Z,92.50
2018-11-10T09:24:19.524Z,92.40
2018-11-10T09:26:47.498Z,92.10
2018-11-10T09:29:15.466Z,92.10
2018-11-10T09:31:43.460Z,92.10
2018-11-10T09:34:11.544Z,92.20
2018-11-10T09:36:39.567Z,92.20
2018-11-10T09:39:07.914Z,92.00
2018-11-10T09:41:36.619Z,92.00
2018-11-10T09:44:04.620Z,92.10
2018-11-10T09:46:32.614Z,91.80
2018-11-10T09:49:00.658Z,91.70
2018-11-10T09:51:28.654Z,91.70
2018-11-10T09:53:57.028Z,91.60
2018-11-10T09:56:24.971Z,91.70
2018-11-10T09:58:52.948Z,91.60
2018-11-10T10:01:21.117Z,91.70
2018-11-10T10:03:48.870Z,91.50
2018-11-10T10:06:16.822Z,91.40
2018-11-10T10:08:44.846Z,91.30
2018-11-10T10:11:12.768Z,91.40
2018-11-10T10:13:40.730Z,91.40
2018-11-10T10:16:08.763Z,91.30
2018-11-10T10:18:36.707Z,91.40
2018-11-10T10:21:04.823Z,91.30
2018-11-10T10:23:32.800Z,91.10
2018-11-10T10:26:00.784Z,91.40
2018-11-10T10:28:28.879Z,91.50
2018-11-10T10:30:56.743Z,91.30
2018-11-10T10:33:24.767Z,91.30
2018-11-10T10:35:52.749Z,91.40
2018-11-10T10:38:20.687Z,91.30
2018-11-10T10:40:48.660Z,91.30
2018-11-10T10:43:16.799Z,91.10
2018-11-10T10:45:44.859Z,91.20
2018-11-10T10:48:12.878Z,91.50
2018-11-10T10:50:40.883Z,91.20
2018-11-10T10:53:08.912Z,91.30
2018-11-10T10:55:36.920Z,91.80
2018-11-10T10:58:05.352Z,91.60
2018-11-10T11:00:39.206Z,91.70
2018-11-10T11:03:12.672Z,91.80
2018-11-10T11:05:42.740Z,91.40
2018-11-10T11:08:10.731Z,91.40
2018-11-10T11:10:38.769Z,91.50
2018-11-10T11:13:06.766Z,91.30
2018-11-10T11:15:34.855Z,91.30
2018-11-10T11:18:02.786Z,91.30
2018-11-10T11:20:30.846Z,91.00
2018-11-10T11:22:58.823Z,90.80
2018-11-10T11:25:27.643Z,90.80
2018-11-10T11:27:55.604Z,90.60
2018-11-10T11:30:23.598Z,90.30
2018-11-10T11:32:51.556Z,90.30
2018-11-10T11:35:19.994Z,90.40
2018-11-10T11:37:47.851Z,90.50
2018-11-10T11:40:15.820Z,90.40
2018-11-10T11:42:44.153Z,90.40
2018-11-10T11:45:13.042Z,90.50
2018-11-10T11:47:41.979Z,90.40
2018-11-10T11:50:11.429Z,90.50
2018-11-10T11:52:40.114Z,90.10
2018-11-10T11:55:08.991Z,90.40
2018-11-10T11:57:37.083Z,90.50
2018-11-10T12:00:06.560Z,90.50
2018-11-10T12:02:34.561Z,90.40
2018-11-10T12:05:02.525Z,90.40
2018-11-10T12:07:30.822Z,90.80
2018-11-10T12:09:58.769Z,90.30
2018-11-10T12:12:26.715Z,90.10
2018-11-10T12:14:54.997Z,90.10
2018-11-10T12:17:22.996Z,90.00
2018-11-10T12:19:52.262Z,90.10
2018-11-10T12:22:20.244Z,90.30
2018-11-10T12:24:48.260Z,90.30
2018-11-10T12:27:16.217Z,90.10
2018-11-10T12:29:44.359Z,90.20
2018-11-10T12:32:12.328Z,90.10
2018-11-10T12:34:40.273Z,90.00
2018-11-10T12:37:08.521Z,90.00
2018-11-10T12:39:36.497Z,90.00
2018-11-10T12:42:05.108Z,90.00
2018-11-10T12:44:33.373Z,90.00
2018-11-10T12:47:01.316Z,89.70
2018-11-10T12:49:29.290Z,89.70
2018-11-10T12:51:57.660Z,89.50
2018-11-10T12:54:25.610Z,89.40
2018-11-10T12:56:53.559Z,89.30
2018-11-10T12:59:21.587Z,89.10
2018-11-10T13:01:49.527Z,89.10
2018-11-10T13:04:17.468Z,88.80
2018-11-10T13:06:45.454Z,88.70
2018-11-10T13:09:13.411Z,88.70
2018-11-10T13:11:41.629Z,88.70
2018-11-10T13:14:10.768Z,88.80
2018-11-10T13:16:38.794Z,89.30
2018-11-10T13:19:07.687Z,89.50
2018-11-10T13:21:35.663Z,89.40
2018-11-10T13:24:03.663Z,89.40
2018-11-10T13:26:31.736Z,89.70
2018-11-10T13:28:59.709Z,89.70
2018-11-10T13:31:27.814Z,89.70
2018-11-10T13:33:55.764Z,89.50
2018-11-10T13:36:24.091Z,89.50
2018-11-10T13:38:52.127Z,89.60
2018-11-10T13:41:20.070Z,90.00
2018-11-10T13:43:48.135Z,90.10
2018-11-10T13:46:16.070Z,90.00
2018-11-10T13:48:44.077Z,90.00
2018-11-10T13:51:12.520Z,90.10
2018-11-10T13:53:40.660Z,90.00
2018-11-10T13:56:08.654Z,90.10
2018-11-10T13:58:36.623Z,90.10
2018-11-10T14:01:05.190Z,90.20
2018-11-10T14:03:33.438Z,90.30
2018-11-10T14:06:01.433Z,90.20
2018-11-10T14:08:29.467Z,90.30
2018-11-10T14:10:57.518Z,90.40
2018-11-10T14:13:25.489Z,90.40
2018-11-10T14:15:53.485Z,90.40
2018-11-10T14:18:21.500Z,90.50
2018-11-10T14:20:49.540Z,90.40
2018-11-10T14:23:17.512Z,90.40
2018-11-10T14:25:45.511Z,90.50
2018-11-10T14:28:13.504Z,90.60
2018-11-10T14:30:41.471Z,90.60
2018-11-10T14:33:09.433Z,90.60
2018-11-10T14:35:37.441Z,90.60
2018-11-10T14:38:05.520Z,90.50
2018-11-10T14:40:33.539Z,90.80
2018-11-10T14:43:01.522Z,90.40
2018-11-10T14:45:29.508Z,90.50
2018-11-10T14:47:57.460Z,90.50
2018-11-10T14:50:25.435Z,90.40
2018-11-10T14:52:53.552Z,90.50
2018-11-10T14:55:21.397Z,90.70
2018-11-10T14:57:49.367Z,90.70
2018-11-10T15:00:24.705Z,90.90
2018-11-10T15:02:52.706Z,91.00
2018-11-10T15:05:20.687Z,91.10
2018-11-10T15:07:48.688Z,91.20
2018-11-10T15:10:17.457Z,91.20
2018-11-10T15:12:46.067Z,91.10
2018-11-10T15:15:15.065Z,91.00
2018-11-10T15:17:43.411Z,91.00
2018-11-10T15:20:12.608Z,91.00
2018-11-10T15:22:40.690Z,91.00
2018-11-10T15:25:10.474Z,91.00
2018-11-10T15:27:38.581Z,91.00
2018-11-10T15:30:08.977Z,90.90
2018-11-10T15:32:36.972Z,91.00
2018-11-10T15:35:05.240Z,91.10
2018-11-10T15:37:33.614Z,91.20
2018-11-10T15:40:01.708Z,91.10
2018-11-10T15:42:29.819Z,91.20
2018-11-10T15:44:57.886Z,91.30
2018-11-10T15:47:25.892Z,91.40
2018-11-10T15:49:53.860Z,91.40
2018-11-10T15:52:22.155Z,91.60
2018-11-10T15:54:50.199Z,91.60
2018-11-10T15:57:18.261Z,91.60
2018-11-10T15:59:46.184Z,91.60
2018-11-10T16:02:14.188Z,91.70
2018-11-10T16:04:42.310Z,91.60
2018-11-10T16:07:10.654Z,91.60
2018-11-10T16:09:38.646Z,91.60
2018-11-10T16:12:06.751Z,91.50
2018-11-10T16:14:34.777Z,91.50
2018-11-10T16:17:02.752Z,91.50
2018-11-10T16:19:30.723Z,91.60
2018-11-10T16:21:58.720Z,91.60
2018-11-10T16:24:26.847Z,91.60
2018-11-10T16:26:54.843Z,92.00
2018-11-10T16:29:22.874Z,91.80
2018-11-10T16:31:50.867Z,92.00
2018-11-10T16:34:22.350Z,91.90
2018-11-10T16:36:50.305Z,91.90
2018-11-10T16:39:18.360Z,91.90
2018-11-10T16:41:46.315Z,92.10
2018-11-10T16:44:14.361Z,92.30
2018-11-10T16:46:42.457Z,92.50
2018-11-10T16:49:10.660Z,92.40
2018-11-10T16:51:38.608Z,92.30
2018-11-10T16:54:06.673Z,92.20
2018-11-10T16:56:34.747Z,92.60
2018-11-10T16:59:02.878Z,92.30
2018-11-10T17:01:30.829Z,92.30
2018-11-10T17:03:58.817Z,92.40
2018-11-10T17:06:26.907Z,92.30
2018-11-10T17:08:55.118Z,92.30
2018-11-10T17:11:23.128Z,92.30
2018-11-10T17:13:51.095Z,92.20
2018-11-10T17:16:19.184Z,92.30
2018-11-10T17:18:47.186Z,92.50
2018-11-10T17:21:15.249Z,92.50
2018-11-10T17:23:43.243Z,92.50
2018-11-10T17:26:11.227Z,92.40
2018-11-10T17:28:39.257Z,92.50
2018-11-10T17:31:07.283Z,92.50
2018-11-10T17:33:35.565Z,92.40
2018-11-10T17:36:03.630Z,92.40
2018-11-10T17:38:31.636Z,92.60
2018-11-10T17:40:59.695Z,92.50
2018-11-10T17:43:27.697Z,92.60
2018-11-10T17:45:55.763Z,92.90
2018-11-10T17:48:24.143Z,92.70
2018-11-10T17:50:52.068Z,92.50
2018-11-10T17:53:20.055Z,92.60
2018-11-10T17:55:48.417Z,92.60
2018-11-10T17:58:16.377Z,92.80
2018-11-10T18:00:44.348Z,92.70
2018-11-10T18:03:12.388Z,92.80
2018-11-10T18:05:40.442Z,92.80
2018-11-10T18:08:08.460Z,92.80
2018-11-10T18:10:36.509Z,93.00
2018-11-10T18:13:04.798Z,92.80
2018-11-10T18:15:32.722Z,92.80
2018-11-10T18:18:00.701Z,92.80
2018-11-10T18:20:28.832Z,92.90
2018-11-10T18:22:56.841Z,92.70
2018-11-10T18:25:25.030Z,92.90
2018-11-10T18:27:53.118Z,93.00
2018-11-10T18:30:21.100Z,93.00
2018-11-10T18:32:49.385Z,93.00
2018-11-10T18:35:17.456Z,93.00
2018-11-10T18:37:45.550Z,93.20
2018-11-10T18:40:13.587Z,93.10
2018-11-10T18:42:41.654Z,93.10
2018-11-10T18:45:10.604Z,93.10
2018-11-10T18:47:39.234Z,93.00
2018-11-10T18:50:09.233Z,93.00
2018-11-10T18:52:37.272Z,93.10
2018-11-10T18:55:05.750Z,93.20
2018-11-10T18:57:34.175Z,93.30
2018-11-10T19:00:02.222Z,93.40
2018-11-10T19:02:30.290Z,93.40
2018-11-10T19:04:58.255Z,93.20
2018-11-10T19:07:26.239Z,93.10
2018-11-10T19:09:54.283Z,93.40
2018-11-10T19:12:22.371Z,93.50
2018-11-10T19:14:50.349Z,93.30
2018-11-10T19:17:18.479Z,93.10
2018-11-10T19:19:46.731Z,93.50
2018-11-10T19:22:14.742Z,93.20
2018-11-10T19:24:42.782Z,92.90
2018-11-10T19:27:10.759Z,92.60
2018-11-10T19:29:38.941Z,92.60
2018-11-10T19:32:07.372Z,92.70
2018-11-10T19:34:35.924Z,92.80
2018-11-10T19:37:03.937Z,92.70
2018-11-10T19:39:32.085Z,92.70
2018-11-10T19:42:00.100Z,92.50
2018-11-10T19:44:28.252Z,92.40
2018-11-10T19:46:56.246Z,92.70
2018-11-10T19:49:24.523Z,92.50
2018-11-10T19:51:52.792Z,92.60
2018-11-10T19:54:20.682Z,92.40
2018-11-10T19:56:48.703Z,92.60
2018-11-10T19:59:17.212Z,92.90
2018-11-10T20:01:45.393Z,93.00
2018-11-10T20:04:13.584Z,92.90
2018-11-10T20:06:42.020Z,92.80
2018-11-10T20:09:10.526Z,92.80
2018-11-10T20:11:38.550Z,92.50
2018-11-10T20:14:06.902Z,92.50
2018-11-10T20:16:35.147Z,92.60
2018-11-10T20:19:03.196Z,92.60
2018-11-10T20:21:31.196Z,92.60
2018-11-10T20:23:59.213Z,93.00
2018-11-10T20:26:27.198Z,93.00
2018-11-10T20:28:55.271Z,92.70
2018-11-10T20:31:23.729Z,92.80
2018-11-10T20:33:51.702Z,92.90
2018-11-10T20:36:19.695Z,92.90
2018-11-10T20:38:47.749Z,92.90
2018-11-10T20:41:15.741Z,93.00
2018-11-10T20:43:43.835Z,93.10
2018-11-10T20:46:11.926Z,93.00
2018-11-10T20:48:39.931Z,93.20
2018-11-10T20:51:07.959Z,93.20
2018-11-10T20:53:43.256Z,93.30
2018-11-10T20:56:11.329Z,93.00
2018-11-10T20:58:39.386Z,93.00
2018-11-10T21:01:07.417Z,93.00
2018-11-10T21:03:35.433Z,93.00
2018-11-10T21:06:03.765Z,93.00
2018-11-10T21:08:38.930Z,92.80
2018-11-10T21:11:06.919Z,92.90
2018-11-10T21:13:34.916Z,93.20
2018-11-10T21:16:02.881Z,93.10
2018-11-10T21:18:30.940Z,93.00
2018-11-10T21:20:59.314Z,93.00
2018-11-10T21:23:27.289Z,92.70
2018-11-10T21:25:55.294Z,92.90
2018-11-10T21:28:23.325Z,92.90
2018-11-10T21:30:51.326Z,93.20
2018-11-10T21:33:19.391Z,93.10
2018-11-10T21:35:47.349Z,93.40
2018-11-10T21:38:15.324Z,93.40
2018-11-10T21:40:43.365Z,93.60
2018-11-10T21:43:11.315Z,93.40
2018-11-10T21:45:39.605Z,93.20
2018-11-10T21:48:07.582Z,92.80
2018-11-10T21:50:35.557Z,92.80
2018-11-10T21:53:03.582Z,93.00
2018-11-10T21:55:31.592Z,92.90
2018-11-10T21:57:59.630Z,92.40
2018-11-10T22:00:27.621Z,92.50
2018-11-10T22:02:55.682Z,92.60
2018-11-10T22:05:23.671Z,92.70
2018-11-10T22:07:51.707Z,92.90
2018-11-10T22:10:20.135Z,93.20
2018-11-10T22:12:49.327Z,93.10
2018-11-10T22:15:19.622Z,93.30
2018-11-10T22:17:47.728Z,93.10
2018-11-10T22:20:17.114Z,93.20
2018-11-10T22:22:45.230Z,92.80
2018-11-10T22:25:13.675Z,92.70
2018-11-10T22:27:43.228Z,93.10
2018-11-10T22:30:12.999Z,93.00
2018-11-10T22:32:41.465Z,93.00
2018-11-10T22:35:09.790Z,93.10
2018-11-10T22:37:37.917Z,93.20
2018-11-10T22:40:10.866Z,93.20
2018-11-10T22:42:39.379Z,93.10
2018-11-10T22:45:09.461Z,92.80
2018-11-10T22:47:37.840Z,92.80
2018-11-10T22:50:07.799Z,93.00
2018-11-10T22:52:35.952Z,93.00
2018-11-10T22:55:04.039Z,92.90
2018-11-10T22:57:32.135Z,92.80
2018-11-10T23:00:00.105Z,92.40
2018-11-10T23:02:28.063Z,92.20
2018-11-10T23:04:56.035Z,92.00
2018-11-10T23:07:24.032Z,92.10
2018-11-10T23:09:54.615Z,92.10
2018-11-10T23:12:22.731Z,92.20
2018-11-10T23:14:50.736Z,92.40
2018-11-10T23:17:19.027Z,92.30
2018-11-10T23:19:46.914Z,92.50
2018-11-10T23:22:14.918Z,92.50
2018-11-10T23:24:42.882Z,92.90
2018-11-10T23:27:10.845Z,92.50
2018-11-10T23:29:38.854Z,92.20
2018-11-10T23:32:06.848Z,92.00
2018-11-10T23:34:35.486Z,92.00
2018-11-10T23:37:03.436Z,92.30
2018-11-10T23:39:30.798Z,92.80
2018-11-10T23:41:58.130Z,92.70
2018-11-10T23:44:25.466Z,92.60
2018-11-10T23:46:52.806Z,92.50
2018-11-10T23:49:20.193Z,92.60
2018-11-10T23:51:47.538Z,92.70
2018-11-10T23:54:15.039Z,93.00
2018-11-10T23:56:42.252Z,93.10
2018-11-10T23:59:09.568Z,93.10
